createdAt,value
2019-03-15T00:01:28.531Z,99.20
2019-03-15T00:03:57.801Z,99.20
2019-03-15T00:06:25.545Z,99.10
2019-03-15T00:08:53.215Z,99.10
2019-03-15T00:11:20.981Z,99.30
2019-03-15T00:13:48.642Z,99.50
2019-03-15T00:16:16.617Z,99.30
2019-03-15T00:18:44.461Z,99.30
2019-03-15T00:21:12.284Z,99.10
2019-03-15T00:23:39.960Z,99.20
2019-03-15T00:26:07.654Z,98.90
2019-03-15T00:28:35.366Z,98.90
2019-03-15T00:31:03.204Z,99.00
2019-03-15T00:33:30.957Z,98.80
2019-03-15T00:35:58.736Z,98.70
2019-03-15T00:38:26.298Z,98.50
2019-03-15T00:40:54.174Z,98.40
2019-03-15T00:43:21.807Z,98.10
2019-03-15T00:45:49.487Z,98.00
2019-03-15T00:48:17.251Z,97.80
2019-03-15T00:50:44.938Z,97.70
2019-03-15T00:53:12.817Z,97.60
2019-03-15T00:55:40.600Z,97.10
2019-03-15T00:58:08.333Z,97.30
2019-03-15T01:00:36.031Z,97.10
2019-03-15T01:03:03.894Z,96.50
2019-03-15T01:05:31.470Z,96.40
2019-03-15T01:07:59.293Z,96.50
2019-03-15T01:10:27.005Z,96.80
2019-03-15T01:12:54.692Z,96.80
2019-03-15T01:15:22.449Z,97.00
2019-03-15T01:17:50.321Z,96.90
2019-03-15T01:20:18.154Z,97.10
2019-03-15T01:22:46.093Z,97.10
2019-03-15T01:25:13.893Z,97.10
2019-03-15T01:27:41.833Z,97.20
2019-03-15T01:30:09.655Z,97.10
2019-03-15T01:32:37.624Z,97.10
2019-03-15T01:35:05.308Z,97.30
2019-03-15T01:37:33.689Z,97.50
2019-03-15T01:40:01.420Z,97.50
2019-03-15T01:42:30.694Z,97.70
2019-03-15T01:44:58.461Z,97.80
2019-03-15T01:47:26.128Z,97.80
2019-03-15T01:49:53.870Z,97.80
2019-03-15T01:52:21.659Z,97.70
2019-03-15T01:54:49.311Z,97.90
2019-03-15T01:57:17.201Z,97.70
2019-03-15T01:59:45.076Z,97.80
2019-03-15T02:02:12.946Z,97.60
2019-03-15T02:04:40.622Z,97.60
2019-03-15T02:07:09.269Z,97.40
2019-03-15T02:09:37.184Z,97.30
2019-03-15T02:12:04.837Z,97.30
2019-03-15T02:14:32.605Z,97.40
2019-03-15T02:17:00.663Z,97.30
2019-03-15T02:19:28.617Z,97.40
2019-03-15T02:21:56.284Z,97.20
2019-03-15T02:24:24.181Z,97.00
2019-03-15T02:26:51.757Z,96.90
2019-03-15T02:29:19.389Z,96.90
2019-03-15T02:31:47.199Z,96.80
2019-03-15T02:34:15.114Z,96.70
2019-03-15T02:36:42.789Z,96.50
2019-03-15T02:39:10.417Z,96.50
2019-03-15T02:41:38.183Z,96.30
2019-03-15T02:44:05.758Z,96.30
2019-03-15T02:46:33.494Z,96.80
2019-03-15T02:49:01.329Z,96.40
2019-03-15T02:51:29.162Z,96.20
2019-03-15T02:53:56.842Z,96.20
2019-03-15T02:56:24.572Z,96.40
2019-03-15T02:58:52.247Z,96.40
2019-03-15T03:01:20.494Z,96.20
2019-03-15T03:03:48.170Z,96.20
2019-03-15T03:06:16.002Z,96.40
2019-03-15T03:08:43.660Z,96.40
2019-03-15T03:11:11.455Z,96.60
2019-03-15T03:13:39.071Z,97.20
2019-03-15T03:16:06.845Z,98.20
2019-03-15T03:18:34.837Z,99.30
2019-03-15T03:21:02.704Z,99.80
2019-03-15T03:23:30.939Z,99.90
2019-03-15T03:25:58.859Z,99.90
2019-03-15T03:28:27.979Z,99.90
2019-03-15T03:30:55.797Z,99.90
2019-03-15T03:33:23.452Z,99.90
2019-03-15T03:35:51.200Z,99.90
2019-03-15T03:38:19.009Z,99.90
2019-03-15T03:40:46.797Z,99.90
2019-03-15T03:43:14.650Z,99.90
2019-03-15T03:45:42.394Z,99.90
2019-03-15T03:48:10.217Z,99.90
2019-03-15T03:50:37.924Z,99.90
2019-03-15T03:53:05.770Z,99.90
2019-03-15T03:55:33.629Z,99.90
2019-03-15T03:58:02.380Z,99.90
2019-03-15T04:00:30.251Z,99.90
2019-03-15T04:02:58.092Z,99.90
2019-03-15T04:05:26.168Z,99.90
2019-03-15T04:07:53.780Z,99.90
2019-03-15T04:10:21.568Z,99.90
2019-03-15T04:12:49.484Z,99.90
2019-03-15T04:15:17.238Z,99.90
2019-03-15T04:17:44.919Z,99.90
2019-03-15T04:20:13.214Z,99.90
2019-03-15T04:22:40.894Z,99.90
2019-03-15T04:25:08.762Z,99.90
2019-03-15T04:27:36.687Z,99.90
2019-03-15T04:30:04.806Z,99.90
2019-03-15T04:32:34.353Z,99.90
2019-03-15T04:35:03.062Z,99.90
2019-03-15T04:37:31.130Z,99.90
2019-03-15T04:39:58.960Z,99.90
2019-03-15T04:42:26.633Z,99.90
2019-03-15T04:44:54.351Z,99.90
2019-03-15T04:47:22.010Z,99.90
2019-03-15T04:49:49.850Z,99.90
2019-03-15T04:52:17.560Z,99.90
2019-03-15T04:54:45.333Z,99.90
2019-03-15T04:57:13.121Z,99.90
2019-03-15T04:59:40.993Z,99.90
2019-03-15T05:02:08.773Z,99.90
2019-03-15T05:04:36.621Z,99.90
2019-03-15T05:07:04.407Z,99.90
2019-03-15T05:09:32.257Z,99.90
2019-03-15T05:12:00.035Z,99.90
2019-03-15T05:14:27.917Z,99.90
2019-03-15T05:16:55.797Z,99.90
2019-03-15T05:19:23.547Z,99.90
2019-03-15T05:21:51.406Z,99.90
2019-03-15T05:24:19.011Z,99.90
2019-03-15T05:26:46.696Z,99.90
2019-03-15T05:29:14.282Z,99.90
2019-03-15T05:31:42.049Z,99.90
2019-03-15T05:34:09.937Z,99.90
2019-03-15T05:36:37.581Z,99.90
2019-03-15T05:39:05.938Z,99.90
2019-03-15T05:41:33.695Z,99.90
2019-03-15T05:44:01.301Z,99.90
2019-03-15T05:46:29.252Z,99.90
2019-03-15T05:48:56.909Z,99.90
2019-03-15T05:51:24.674Z,99.90
2019-03-15T05:53:52.356Z,99.90
2019-03-15T05:56:20.205Z,99.90
2019-03-15T05:58:47.874Z,99.90
2019-03-15T06:01:15.587Z,99.90
2019-03-15T06:03:48.870Z,99.90
2019-03-15T06:06:13.093Z,99.90
2019-03-15T06:08:41.006Z,99.90
2019-03-15T06:11:08.714Z,99.90
2019-03-15T06:13:36.482Z,99.90
2019-03-15T06:16:04.245Z,99.90
2019-03-15T06:18:32.034Z,99.90
2019-03-15T06:20:59.813Z,99.90
2019-03-15T06:23:27.478Z,99.90
2019-03-15T06:25:55.250Z,99.90
2019-03-15T06:28:22.926Z,99.90
2019-03-15T06:30:50.522Z,99.90
2019-03-15T06:33:18.301Z,99.90
2019-03-15T06:35:45.973Z,99.90
2019-03-15T06:38:13.902Z,99.90
2019-03-15T06:40:41.688Z,99.90
2019-03-15T06:43:09.360Z,99.90
2019-03-15T06:45:37.137Z,99.90
2019-03-15T06:48:04.822Z,99.90
2019-03-15T06:50:32.613Z,99.90
2019-03-15T06:53:00.394Z,99.90
2019-03-15T06:55:28.269Z,99.90
2019-03-15T06:57:56.057Z,99.90
2019-03-15T07:00:23.858Z,99.90
2019-03-15T07:02:51.524Z,99.90
2019-03-15T07:05:20.670Z,99.90
2019-03-15T07:07:48.696Z,99.90
2019-03-15T07:10:16.477Z,99.90
2019-03-15T07:12:44.142Z,99.90
2019-03-15T07:15:11.898Z,99.90
2019-03-15T07:17:39.978Z,99.90
2019-03-15T07:20:08.413Z,99.90
2019-03-15T07:22:37.730Z,99.90
2019-03-15T07:25:05.691Z,99.90
2019-03-15T07:27:34.774Z,99.90
2019-03-15T07:30:02.896Z,99.90
2019-03-15T07:32:32.186Z,99.90
2019-03-15T07:34:59.885Z,99.90
2019-03-15T07:37:28.131Z,99.90
2019-03-15T07:39:55.969Z,99.90
2019-03-15T07:42:23.726Z,99.90
2019-03-15T07:44:51.443Z,99.90
2019-03-15T07:47:19.303Z,99.90
2019-03-15T07:49:47.095Z,99.90
2019-03-15T07:52:14.843Z,99.90
2019-03-15T07:54:42.562Z,99.90
2019-03-15T07:57:10.525Z,99.90
2019-03-15T07:59:38.201Z,99.90
2019-03-15T08:02:06.066Z,99.90
2019-03-15T08:04:36.012Z,99.90
2019-03-15T08:07:03.361Z,99.90
2019-03-15T08:09:31.038Z,99.90
2019-03-15T08:11:58.682Z,99.90
2019-03-15T08:15:21.288Z,99.90
2019-03-15T08:17:48.625Z,99.90
2019-03-15T08:20:16.683Z,99.90
2019-03-15T08:22:44.469Z,99.90
2019-03-15T08:25:12.140Z,99.90
2019-03-15T08:27:40.123Z,99.90
2019-03-15T08:30:09.536Z,99.90
2019-03-15T08:32:38.893Z,99.90
2019-03-15T08:35:07.662Z,99.90
2019-03-15T08:37:36.518Z,99.90
2019-03-15T08:40:05.238Z,99.90
2019-03-15T08:42:34.856Z,99.90
2019-03-15T08:45:03.520Z,99.90
2019-03-15T08:47:32.812Z,99.90
2019-03-15T08:50:00.896Z,99.90
2019-03-15T08:52:30.137Z,99.90
2019-03-15T08:55:05.092Z,99.90
2019-03-15T08:57:27.413Z,99.90
2019-03-15T08:59:57.626Z,99.90
2019-03-15T09:02:24.786Z,99.90
2019-03-15T09:04:52.537Z,99.90
2019-03-15T09:07:20.203Z,99.90
2019-03-15T09:09:48.074Z,99.90
2019-03-15T09:12:15.805Z,99.90
2019-03-15T09:14:43.633Z,99.90
2019-03-15T09:17:11.532Z,99.90
2019-03-15T09:19:39.473Z,99.90
2019-03-15T09:22:07.161Z,99.90
2019-03-15T09:24:35.027Z,99.90
2019-03-15T09:27:02.812Z,99.90
2019-03-15T09:29:30.554Z,99.90
2019-03-15T09:32:05.498Z,99.90
2019-03-15T09:34:28.040Z,99.90
2019-03-15T09:36:55.904Z,99.90
2019-03-15T09:39:23.595Z,99.90
2019-03-15T09:41:51.375Z,99.90
2019-03-15T09:44:19.192Z,99.90
2019-03-15T09:46:47.157Z,99.90
2019-03-15T09:49:14.845Z,99.90
2019-03-15T09:51:43.080Z,99.90
2019-03-15T09:54:10.693Z,99.90
2019-03-15T09:56:38.331Z,99.90
2019-03-15T09:59:06.042Z,99.90
2019-03-15T10:01:35.508Z,99.90
2019-03-15T10:04:03.330Z,99.90
2019-03-15T10:06:31.205Z,99.90
2019-03-15T10:08:58.880Z,99.90
2019-03-15T10:11:26.628Z,99.90
2019-03-15T10:13:54.332Z,99.90
2019-03-15T10:16:22.174Z,99.90
2019-03-15T10:18:50.638Z,99.90
2019-03-15T10:21:18.765Z,99.90
2019-03-15T10:23:46.428Z,99.90
2019-03-15T10:26:15.146Z,99.90
2019-03-15T10:28:43.059Z,99.90
2019-03-15T10:31:10.950Z,99.90
2019-03-15T10:33:49.787Z,99.90
2019-03-15T10:36:08.270Z,99.90
2019-03-15T10:38:36.143Z,99.90
2019-03-15T10:41:03.825Z,99.90
2019-03-15T10:43:31.555Z,99.90
2019-03-15T10:45:59.128Z,99.90
2019-03-15T10:48:26.840Z,99.90
2019-03-15T10:50:54.521Z,99.90
2019-03-15T10:53:22.175Z,99.90
2019-03-15T10:55:59.724Z,99.90
2019-03-15T10:58:19.567Z,99.90
2019-03-15T11:00:47.334Z,99.90
2019-03-15T11:03:15.352Z,99.90
2019-03-15T11:05:43.147Z,99.90
2019-03-15T11:08:10.822Z,99.90
2019-03-15T11:10:38.585Z,99.90
2019-03-15T11:13:06.358Z,99.90
2019-03-15T11:15:34.096Z,99.90
2019-03-15T11:18:01.820Z,99.90
2019-03-15T11:20:29.586Z,99.90
2019-03-15T11:22:57.274Z,99.90
2019-03-15T11:25:24.959Z,99.90
2019-03-15T11:27:52.746Z,99.90
2019-03-15T11:30:20.510Z,99.90
2019-03-15T11:32:48.318Z,99.90
2019-03-15T11:35:16.100Z,99.90
2019-03-15T11:37:43.721Z,99.90
2019-03-15T11:40:13.781Z,99.90
2019-03-15T11:42:42.294Z,99.90
2019-03-15T11:45:10.270Z,99.90
2019-03-15T11:48:00.604Z,99.90
2019-03-15T11:50:09.123Z,99.90
2019-03-15T11:52:38.434Z,99.90
2019-03-15T11:55:07.121Z,99.90
2019-03-15T11:57:35.709Z,99.90
2019-03-15T12:00:04.407Z,99.90
2019-03-15T12:02:33.758Z,99.90
2019-03-15T12:05:01.658Z,99.90
2019-03-15T12:07:30.547Z,99.90
2019-03-15T12:09:58.245Z,99.90
2019-03-15T12:12:25.934Z,99.90
2019-03-15T12:14:53.548Z,99.90
2019-03-15T12:17:21.289Z,99.90
2019-03-15T12:19:48.955Z,99.90
2019-03-15T12:22:16.735Z,99.90
2019-03-15T12:24:44.404Z,99.90
2019-03-15T12:27:12.304Z,99.90
2019-03-15T12:29:39.993Z,99.90
2019-03-15T12:32:07.741Z,99.90
2019-03-15T12:34:35.405Z,99.90
2019-03-15T12:37:03.176Z,99.90
2019-03-15T12:39:31.036Z,99.90
2019-03-15T12:41:59.036Z,99.90
2019-03-15T12:44:26.697Z,99.90
2019-03-15T12:46:54.500Z,99.90
2019-03-15T12:49:25.446Z,99.90
2019-03-15T12:51:51.947Z,99.90
2019-03-15T12:54:19.670Z,99.90
2019-03-15T12:56:53.727Z,99.90
2019-03-15T12:59:17.382Z,99.90
2019-03-15T13:01:45.091Z,99.90
2019-03-15T13:04:15.851Z,99.90
2019-03-15T13:06:43.671Z,99.90
2019-03-15T13:09:11.468Z,99.90
2019-03-15T13:11:46.743Z,99.90
2019-03-15T13:14:16.219Z,99.90
2019-03-15T13:16:46.531Z,99.90
2019-03-15T13:19:14.342Z,99.90
2019-03-15T13:21:42.216Z,99.90
2019-03-15T13:24:10.061Z,99.90
2019-03-15T13:26:37.925Z,99.90
2019-03-15T13:29:05.793Z,99.90
2019-03-15T13:31:33.556Z,99.90
2019-03-15T13:34:01.389Z,99.90
2019-03-15T13:36:29.079Z,99.90
2019-03-15T13:38:56.802Z,99.90
2019-03-15T13:41:24.503Z,99.90
2019-03-15T13:43:52.272Z,99.90
2019-03-15T13:46:20.018Z,99.90
2019-03-15T13:48:49.177Z,99.90
2019-03-15T13:51:22.863Z,99.90
2019-03-15T13:53:51.124Z,99.90
2019-03-15T13:56:18.833Z,99.90
2019-03-15T13:58:56.602Z,99.90
2019-03-15T14:01:16.151Z,99.90
2019-03-15T14:03:43.881Z,99.90
2019-03-15T14:06:11.671Z,99.90
2019-03-15T14:08:39.494Z,99.90
2019-03-15T14:11:07.331Z,99.90
2019-03-15T14:13:35.128Z,99.90
2019-03-15T14:16:02.888Z,99.90
2019-03-15T14:18:30.658Z,99.90
2019-03-15T14:20:58.483Z,99.90
2019-03-15T14:23:26.298Z,99.90
2019-03-15T14:25:54.120Z,99.90
2019-03-15T14:28:21.819Z,99.90
2019-03-15T14:30:49.503Z,99.90
2019-03-15T14:33:17.196Z,99.90
2019-03-15T14:35:45.088Z,99.90
2019-03-15T14:38:12.820Z,99.90
2019-03-15T14:40:40.692Z,99.90
2019-03-15T14:43:09.678Z,99.90
2019-03-15T14:45:37.525Z,99.90
2019-03-15T14:48:05.413Z,99.90
2019-03-15T14:50:33.267Z,99.90
2019-03-15T14:53:01.333Z,99.90
2019-03-15T14:55:32.330Z,99.90
2019-03-15T14:58:03.213Z,99.90
2019-03-15T15:00:30.862Z,99.90
2019-03-15T15:03:01.711Z,99.90
2019-03-15T15:05:29.715Z,99.90
2019-03-15T15:07:57.507Z,99.90
2019-03-15T15:10:25.249Z,99.90
2019-03-15T15:12:53.086Z,99.90
2019-03-15T15:15:20.838Z,99.90
2019-03-15T15:17:48.623Z,99.90
2019-03-15T15:20:16.516Z,99.90
2019-03-15T15:22:44.416Z,99.90
2019-03-15T15:25:12.272Z,99.90
2019-03-15T15:30:23.163Z,99.90
2019-03-15T15:32:54.028Z,99.90
2019-03-15T15:35:22.599Z,99.90
2019-03-15T15:37:53.786Z,99.90
2019-03-15T15:40:29.228Z,99.90
2019-03-15T15:43:07.284Z,99.90
2019-03-15T15:45:41.300Z,99.90
2019-03-15T15:48:11.687Z,99.90
2019-03-15T15:50:44.278Z,99.90
2019-03-15T15:53:14.728Z,99.70
2019-03-15T15:55:45.399Z,99.90
2019-03-15T15:58:18.108Z,99.80
2019-03-15T16:00:51.378Z,99.80
2019-03-15T16:03:20.980Z,99.90
2019-03-15T16:05:55.609Z,99.60
2019-03-15T16:08:23.856Z,99.60
2019-03-15T16:10:52.279Z,99.70
2019-03-15T16:13:20.378Z,99.90
2019-03-15T16:15:48.229Z,99.70
2019-03-15T16:18:16.110Z,99.90
2019-03-15T16:20:43.998Z,99.60
2019-03-15T16:23:11.761Z,99.70
2019-03-15T16:25:39.586Z,99.70
2019-03-15T16:28:07.344Z,99.80
2019-03-15T16:30:35.239Z,99.90
2019-03-15T16:33:03.106Z,99.90
2019-03-15T16:35:30.963Z,99.70
2019-03-15T16:37:58.569Z,99.80
2019-03-15T16:40:26.357Z,99.80
2019-03-15T16:42:54.111Z,99.80
2019-03-15T16:45:21.953Z,99.90
2019-03-15T16:47:51.392Z,99.90
2019-03-15T16:50:19.305Z,99.90
2019-03-15T16:52:47.091Z,99.90
2019-03-15T16:55:14.912Z,99.90
2019-03-15T16:57:43.328Z,99.90
2019-03-15T17:00:11.442Z,99.90
2019-03-15T17:02:40.518Z,99.90
2019-03-15T17:05:08.750Z,99.90
2019-03-15T17:07:37.656Z,99.90
2019-03-15T17:10:06.247Z,99.90
2019-03-15T17:12:35.684Z,99.90
2019-03-15T17:15:04.494Z,99.80
2019-03-15T17:17:33.928Z,99.90
2019-03-15T17:20:01.653Z,99.70
2019-03-15T17:22:31.127Z,99.90
2019-03-15T17:24:58.845Z,99.90
2019-03-15T17:27:26.639Z,99.90
2019-03-15T17:29:54.396Z,99.70
2019-03-15T17:32:22.226Z,99.70
2019-03-15T17:34:49.862Z,99.80
2019-03-15T17:37:17.596Z,99.60
2019-03-15T17:39:45.621Z,99.60
2019-03-15T17:42:13.481Z,99.60
2019-03-15T17:44:41.302Z,99.80
2019-03-15T17:47:09.096Z,99.70
2019-03-15T17:49:36.902Z,99.70
2019-03-15T17:52:04.748Z,99.90
2019-03-15T17:54:32.589Z,99.90
2019-03-15T17:57:00.426Z,99.80
2019-03-15T17:59:28.308Z,99.90
2019-03-15T18:01:56.011Z,99.90
2019-03-15T18:04:23.868Z,99.90
2019-03-15T18:06:51.586Z,99.90
2019-03-15T18:09:19.522Z,99.90
2019-03-15T18:11:47.277Z,99.90
2019-03-15T18:14:15.016Z,99.90
2019-03-15T18:16:42.859Z,99.70
2019-03-15T18:19:10.726Z,99.60
2019-03-15T18:21:38.595Z,99.50
2019-03-15T18:24:06.423Z,99.50
2019-03-15T18:26:34.283Z,99.50
2019-03-15T18:29:02.122Z,99.40
2019-03-15T18:31:29.938Z,99.40
2019-03-15T18:33:57.727Z,99.40
2019-03-15T18:36:25.519Z,99.40
2019-03-15T18:38:53.299Z,99.40
2019-03-15T18:41:22.687Z,99.40
2019-03-15T18:43:50.594Z,99.40
2019-03-15T18:46:18.339Z,99.50
2019-03-15T18:48:46.168Z,99.60
2019-03-15T18:51:14.095Z,99.50
2019-03-15T18:53:41.840Z,99.50
2019-03-15T18:56:09.694Z,99.40
2019-03-15T18:58:37.478Z,99.40
2019-03-15T19:01:05.342Z,99.40
2019-03-15T19:03:33.076Z,99.40
2019-03-15T19:06:00.992Z,99.40
2019-03-15T19:08:28.862Z,99.40
2019-03-15T19:10:56.992Z,99.30
2019-03-15T19:13:24.906Z,99.30
2019-03-15T19:15:52.767Z,99.20
2019-03-15T19:18:20.535Z,99.30
2019-03-15T19:20:48.541Z,99.20
2019-03-15T19:23:16.378Z,99.30
2019-03-15T19:25:44.375Z,99.30
2019-03-15T19:28:12.289Z,99.30
2019-03-15T19:30:40.096Z,99.20
2019-03-15T19:33:07.957Z,99.30
2019-03-15T19:35:35.738Z,99.30
2019-03-15T19:38:03.553Z,99.20
2019-03-15T19:40:31.486Z,99.10
2019-03-15T19:42:59.365Z,99.20
2019-03-15T19:45:27.119Z,99.20
2019-03-15T19:47:54.960Z,99.20
2019-03-15T19:50:22.749Z,99.10
2019-03-15T19:52:50.599Z,99.40
2019-03-15T19:55:18.326Z,99.40
2019-03-15T19:57:46.272Z,99.70
2019-03-15T20:00:14.535Z,99.50
2019-03-15T20:02:43.766Z,99.60
2019-03-15T20:05:14.673Z,99.70
2019-03-15T20:07:42.668Z,99.90
2019-03-15T20:10:11.683Z,99.90
2019-03-15T20:12:40.558Z,99.90
2019-03-15T20:15:08.728Z,99.90
2019-03-15T20:17:38.140Z,99.90
2019-03-15T20:20:07.025Z,99.90
2019-03-15T20:22:36.448Z,99.90
2019-03-15T20:25:05.105Z,99.90
2019-03-15T20:27:34.569Z,99.90
2019-03-15T20:30:02.750Z,99.90
2019-03-15T20:32:32.199Z,99.90
2019-03-15T20:35:00.236Z,99.90
2019-03-15T20:37:30.530Z,99.90
2019-03-15T20:39:58.441Z,99.90
2019-03-15T20:42:26.246Z,99.90
2019-03-15T20:44:54.238Z,99.90
2019-03-15T20:47:21.979Z,99.90
2019-03-15T20:49:50.161Z,99.90
2019-03-15T20:52:18.018Z,99.90
2019-03-15T20:54:45.925Z,99.90
2019-03-15T20:57:13.813Z,99.90
2019-03-15T20:59:41.679Z,99.90
2019-03-15T21:02:09.493Z,99.90
2019-03-15T21:04:37.243Z,99.90
2019-03-15T21:07:05.085Z,99.90
2019-03-15T21:09:32.946Z,99.90
2019-03-15T21:12:00.847Z,99.90
2019-03-15T21:14:28.632Z,99.90
2019-03-15T21:16:56.506Z,99.90
2019-03-15T21:19:24.230Z,99.90
2019-03-15T21:21:52.151Z,99.90
2019-03-15T21:24:19.890Z,99.90
2019-03-15T21:26:47.629Z,99.90
2019-03-15T21:29:34.990Z,99.90
2019-03-15T21:32:02.825Z,99.90
2019-03-15T21:34:30.743Z,99.90
2019-03-15T21:36:58.482Z,99.90
2019-03-15T21:39:26.290Z,99.90
2019-03-15T21:41:54.097Z,99.90
2019-03-15T21:44:21.859Z,99.90
2019-03-15T21:46:49.730Z,99.90
2019-03-15T21:49:17.470Z,99.90
2019-03-15T21:51:45.276Z,99.90
2019-03-15T21:54:13.005Z,99.90
2019-03-15T21:56:40.919Z,99.90
2019-03-15T21:59:08.684Z,99.90
2019-03-15T22:01:36.359Z,99.90
2019-03-15T22:04:04.183Z,99.90
2019-03-15T22:06:31.889Z,99.90
2019-03-15T22:08:59.582Z,99.90
2019-03-15T22:11:27.314Z,99.90
2019-03-15T22:13:55.430Z,99.90
2019-03-15T22:16:23.190Z,99.90
2019-03-15T22:18:50.991Z,99.90
2019-03-15T22:21:18.811Z,99.90
2019-03-15T22:23:46.578Z,99.90
2019-03-15T22:26:14.335Z,99.90
2019-03-15T22:28:42.235Z,99.90
2019-03-15T22:31:16.471Z,99.90
2019-03-15T22:33:39.699Z,99.90
2019-03-15T22:36:07.423Z,99.90
2019-03-15T22:38:35.317Z,99.90
2019-03-15T22:41:03.221Z,99.90
2019-03-15T22:43:30.959Z,99.90
2019-03-15T22:45:58.642Z,99.90
2019-03-15T22:48:26.227Z,99.90
2019-03-15T22:50:56.000Z,99.90
2019-03-15T22:53:23.732Z,99.90
2019-03-15T22:55:51.420Z,99.90
2019-03-15T22:58:19.110Z,99.90
2019-03-15T23:00:47.885Z,99.90
2019-03-15T23:03:15.977Z,99.90
2019-03-15T23:05:43.727Z,99.90
2019-03-15T23:08:11.434Z,99.90
2019-03-15T23:10:39.414Z,99.90
2019-03-15T23:13:07.113Z,99.90
2019-03-15T23:15:35.007Z,99.90
2019-03-15T23:18:02.827Z,99.90
2019-03-15T23:20:30.642Z,99.90
2019-03-15T23:22:58.555Z,99.90
2019-03-15T23:25:26.350Z,99.90
2019-03-15T23:27:54.109Z,99.90
2019-03-15T23:30:21.821Z,99.90
2019-03-15T23:32:49.606Z,99.90
2019-03-15T23:35:17.317Z,99.90
2019-03-15T23:37:45.020Z,99.90
2019-03-15T23:40:13.111Z,99.90
2019-03-15T23:42:40.921Z,99.90
2019-03-15T23:45:08.770Z,99.90
2019-03-15T23:47:36.979Z,99.90
2019-03-15T23:50:04.911Z,99.90
2019-03-15T23:52:34.277Z,99.90
2019-03-15T23:55:01.992Z,99.90
2019-03-15T23:57:31.167Z,99.90
2019-03-15T23:59:58.878Z,99.90
